createdAt,value
2022-10-13T00:00:03.558Z,9.94
2022-10-13T00:03:10.125Z,9.89
2022-10-13T00:06:18.870Z,9.89
2022-10-13T00:09:26.582Z,9.65
2022-10-13T00:12:35.994Z,9.90
2022-10-13T00:15:44.541Z,9.47
2022-10-13T00:18:51.530Z,9.85
2022-10-13T00:21:57.934Z,9.77
2022-10-13T00:25:06.365Z,9.35
2022-10-13T00:28:13.331Z,9.45
2022-10-13T00:31:21.197Z,9.11
2022-10-13T00:34:27.415Z,9.50
2022-10-13T00:37:33.792Z,9.79
2022-10-13T00:40:48.948Z,9.81
2022-10-13T00:43:58.497Z,9.93
2022-10-13T00:47:04.804Z,9.84
2022-10-13T00:50:15.822Z,10.04
2022-10-13T00:53:24.406Z,9.89
2022-10-13T00:56:32.125Z,9.52
2022-10-13T00:59:40.462Z,9.29
2022-10-13T01:02:46.948Z,9.20
2022-10-13T01:05:55.814Z,8.92
2022-10-13T01:09:01.871Z,9.19
2022-10-13T01:12:20.675Z,9.56
2022-10-13T01:15:33.105Z,9.41
2022-10-13T01:18:46.491Z,9.26
2022-10-13T01:22:03.247Z,8.98
2022-10-13T01:25:25.141Z,9.12
2022-10-13T01:28:51.117Z,9.32
2022-10-13T01:32:08.311Z,9.65
2022-10-13T01:35:20.031Z,9.59
2022-10-13T01:38:34.679Z,9.51
2022-10-13T01:41:44.124Z,9.45
2022-10-13T01:44:54.091Z,9.73
2022-10-13T01:48:04.362Z,9.90
2022-10-13T01:51:15.771Z,10.13
2022-10-13T01:54:22.240Z,10.19
2022-10-13T01:57:33.039Z,10.30
2022-10-13T02:00:45.065Z,10.05
2022-10-13T02:04:02.602Z,10.16
2022-10-13T02:07:17.410Z,10.13
2022-10-13T02:10:28.550Z,9.99
2022-10-13T02:13:38.225Z,10.04
2022-10-13T02:16:47.621Z,9.89
2022-10-13T02:19:56.780Z,9.89
2022-10-13T02:23:08.472Z,10.00
2022-10-13T02:26:15.613Z,10.15
2022-10-13T02:29:22.546Z,10.24
2022-10-13T02:32:28.988Z,10.10
2022-10-13T02:35:36.859Z,10.04
2022-10-13T02:38:42.916Z,10.09
2022-10-13T02:41:49.495Z,10.14
2022-10-13T02:44:55.788Z,10.25
2022-10-13T02:48:02.032Z,10.11
2022-10-13T02:51:09.732Z,9.86
2022-10-13T02:54:15.855Z,9.56
2022-10-13T02:57:22.274Z,9.51
2022-10-13T03:00:28.533Z,9.23
2022-10-13T03:03:34.606Z,9.51
2022-10-13T03:06:42.125Z,9.54
2022-10-13T03:09:48.118Z,9.63
2022-10-13T03:12:55.699Z,9.90
2022-10-13T03:16:01.664Z,9.93
2022-10-13T03:19:07.888Z,9.72
2022-10-13T03:22:15.675Z,9.81
2022-10-13T03:25:21.643Z,9.63
2022-10-13T03:28:27.960Z,9.48
2022-10-13T03:31:33.876Z,9.31
2022-10-13T03:34:40.288Z,8.86
2022-10-13T03:37:47.943Z,8.82
2022-10-13T03:40:54.235Z,9.10
2022-10-13T03:44:00.533Z,9.12
2022-10-13T03:47:07.157Z,9.42
2022-10-13T03:50:13.270Z,9.39
2022-10-13T03:53:21.176Z,9.32
2022-10-13T03:56:28.629Z,9.17
2022-10-13T03:59:36.974Z,9.27
2022-10-13T04:02:43.722Z,8.85
2022-10-13T04:05:49.786Z,8.99
2022-10-13T04:08:57.290Z,9.04
2022-10-13T04:12:03.262Z,8.95
2022-10-13T04:15:10.786Z,8.82
2022-10-13T04:18:16.957Z,8.87
2022-10-13T04:21:24.659Z,8.95
2022-10-13T04:24:32.315Z,8.87
2022-10-13T04:27:39.580Z,8.87
2022-10-13T04:30:49.271Z,9.03
2022-10-13T04:33:56.022Z,9.00
2022-10-13T04:37:01.949Z,8.90
2022-10-13T04:40:10.675Z,9.07
2022-10-13T04:43:16.614Z,9.17
2022-10-13T04:46:24.901Z,9.21
2022-10-13T04:49:32.083Z,9.15
2022-10-13T04:52:38.148Z,8.99
2022-10-13T04:55:45.885Z,9.13
2022-10-13T04:58:52.080Z,9.15
2022-10-13T05:01:58.059Z,8.95
2022-10-13T05:05:04.314Z,9.17
2022-10-13T05:08:10.644Z,9.23
2022-10-13T05:11:20.115Z,9.25
2022-10-13T05:14:26.792Z,9.45
2022-10-13T05:17:35.356Z,9.81
2022-10-13T05:20:41.604Z,9.36
2022-10-13T05:23:48.215Z,9.39
2022-10-13T05:26:55.945Z,9.54
2022-10-13T05:30:02.248Z,9.59
2022-10-13T05:33:09.354Z,9.76
2022-10-13T05:36:19.686Z,9.80
2022-10-13T05:39:26.161Z,9.83
2022-10-13T05:42:34.308Z,10.23
2022-10-13T05:45:42.050Z,9.94
2022-10-13T05:48:48.432Z,9.98
2022-10-13T05:51:58.726Z,10.00
2022-10-13T05:55:10.355Z,9.87
2022-10-13T05:58:18.466Z,9.51
2022-10-13T06:01:26.543Z,10.16
2022-10-13T06:04:37.547Z,9.74
2022-10-13T06:07:44.928Z,9.60
2022-10-13T06:10:51.063Z,10.03
2022-10-13T06:13:59.023Z,10.45
2022-10-13T06:17:05.423Z,10.94
2022-10-13T06:20:12.476Z,10.97
2022-10-13T06:23:18.673Z,10.95
2022-10-13T06:26:24.760Z,11.00
2022-10-13T06:29:33.528Z,10.48
2022-10-13T06:32:39.638Z,10.84
2022-10-13T06:35:45.876Z,11.32
2022-10-13T06:38:52.146Z,10.95
2022-10-13T06:41:58.586Z,11.35
2022-10-13T06:45:06.891Z,10.97
2022-10-13T06:48:13.292Z,11.10
2022-10-13T06:51:19.995Z,11.58
2022-10-13T06:54:25.941Z,11.29
2022-10-13T06:57:32.370Z,11.71
2022-10-13T07:00:42.935Z,11.46
2022-10-13T07:03:50.650Z,11.39
2022-10-13T07:06:56.749Z,11.05
2022-10-13T07:10:03.164Z,11.56
2022-10-13T07:13:09.883Z,10.95
2022-10-13T07:16:17.884Z,11.03
2022-10-13T07:19:24.078Z,11.34
2022-10-13T07:22:31.060Z,11.60
2022-10-13T07:25:37.472Z,12.12
2022-10-13T07:28:44.207Z,12.01
2022-10-13T07:31:52.281Z,11.90
2022-10-13T07:34:58.348Z,12.17
2022-10-13T07:38:04.768Z,12.51
2022-10-13T07:41:12.722Z,12.16
2022-10-13T07:44:18.911Z,12.10
2022-10-13T07:47:26.536Z,11.65
2022-10-13T07:50:33.115Z,11.67
2022-10-13T07:53:40.351Z,12.49
2022-10-13T07:56:46.695Z,12.38
2022-10-13T07:59:52.814Z,12.43
2022-10-13T08:03:00.454Z,12.77
2022-10-13T08:06:08.176Z,12.34
2022-10-13T08:09:14.535Z,12.39
2022-10-13T08:12:21.356Z,12.70
2022-10-13T08:15:28.176Z,13.01
2022-10-13T08:18:36.060Z,13.02
2022-10-13T08:21:59.654Z,12.73
2022-10-13T08:25:07.385Z,13.54
2022-10-13T08:28:20.115Z,13.93
2022-10-13T08:31:26.146Z,14.05
2022-10-13T08:34:34.221Z,14.07
2022-10-13T08:37:39.978Z,13.77
2022-10-13T08:40:48.686Z,14.05
2022-10-13T08:44:33.953Z,13.72
2022-10-13T08:47:41.091Z,13.46
2022-10-13T08:50:52.033Z,13.41
2022-10-13T08:53:58.578Z,13.41
2022-10-13T08:57:06.709Z,13.62
2022-10-13T09:00:15.298Z,13.77
2022-10-13T09:03:25.172Z,14.19
2022-10-13T09:06:37.923Z,13.77
2022-10-13T09:09:44.172Z,13.97
2022-10-13T09:12:51.728Z,14.50
2022-10-13T09:15:59.606Z,13.60
2022-10-13T09:19:22.479Z,14.77
2022-10-13T09:22:31.207Z,14.97
2022-10-13T09:25:42.077Z,15.74
2022-10-13T10:41:05.668Z,18.18
2022-10-13T10:44:14.540Z,18.56
2022-10-13T10:47:26.388Z,17.99
2022-10-13T10:50:35.369Z,18.93
2022-10-13T10:53:50.193Z,17.90
2022-10-13T10:57:03.876Z,17.86
2022-10-13T11:00:16.642Z,17.33
2022-10-13T11:03:36.578Z,17.67
2022-10-13T11:06:42.482Z,18.10
2022-10-13T11:10:21.351Z,17.22
2022-10-13T11:13:28.742Z,17.37
2022-10-13T11:16:37.154Z,17.76
2022-10-13T11:19:43.567Z,17.31
2022-10-13T11:23:28.320Z,17.12
2022-10-13T11:26:43.747Z,17.64
2022-10-13T11:29:57.239Z,17.13
2022-10-13T11:33:09.393Z,17.34
2022-10-13T11:36:49.744Z,17.66
2022-10-13T11:40:17.199Z,17.80
2022-10-13T11:43:37.100Z,17.50
2022-10-13T11:47:02.795Z,17.99
2022-10-13T11:50:20.048Z,18.04
2022-10-13T11:53:32.818Z,17.20
2022-10-13T11:56:48.765Z,17.19
2022-10-13T11:59:56.888Z,17.19
2022-10-13T12:03:04.933Z,17.77
2022-10-13T12:06:33.241Z,17.55
2022-10-13T12:09:50.810Z,17.94
2022-10-13T12:12:58.448Z,17.60
2022-10-13T12:16:06.680Z,17.45
2022-10-13T12:19:22.568Z,17.64
2022-10-13T12:22:29.464Z,17.80
2022-10-13T12:25:35.482Z,17.59
2022-10-13T12:28:52.353Z,17.37
2022-10-13T12:31:59.646Z,17.78
2022-10-13T12:35:19.582Z,17.55
2022-10-13T12:38:26.104Z,17.67
2022-10-13T12:41:35.703Z,17.75
2022-10-13T12:44:42.877Z,17.88
2022-10-13T12:47:51.903Z,17.77
2022-10-13T12:51:17.407Z,17.88
2022-10-13T12:54:28.101Z,18.20
2022-10-13T12:57:38.529Z,18.23
2022-10-13T13:00:45.062Z,17.97
2022-10-13T13:03:57.268Z,17.60
2022-10-13T13:07:06.907Z,17.61
2022-10-13T13:10:19.128Z,17.75
2022-10-13T13:13:26.195Z,17.53
2022-10-13T13:16:32.337Z,17.62
2022-10-13T13:19:39.717Z,17.57
2022-10-13T13:22:47.413Z,17.50
2022-10-13T13:26:02.543Z,17.08
2022-10-13T13:29:11.712Z,17.21
2022-10-13T13:32:20.517Z,16.98
2022-10-13T13:35:27.052Z,17.05
2022-10-13T13:38:34.799Z,17.08
2022-10-13T13:41:40.792Z,17.08
2022-10-13T13:44:47.350Z,16.99
2022-10-13T13:47:56.881Z,16.71
2022-10-13T13:51:06.888Z,16.94
2022-10-13T13:54:14.572Z,16.93
2022-10-13T13:57:21.798Z,16.84
2022-10-13T14:00:28.600Z,16.78
2022-10-13T14:03:34.721Z,16.78
2022-10-13T14:06:40.924Z,16.97
2022-10-13T14:09:48.899Z,16.77
2022-10-13T14:12:55.758Z,16.73
2022-10-13T14:16:03.544Z,16.68
2022-10-13T14:19:10.395Z,16.88
2022-10-13T14:22:16.499Z,17.03
2022-10-13T14:25:24.103Z,16.69
2022-10-13T14:28:30.245Z,16.71
2022-10-13T14:31:36.615Z,16.63
2022-10-13T14:34:43.156Z,16.28
2022-10-13T14:37:49.498Z,16.29
2022-10-13T14:41:01.541Z,16.06
2022-10-13T14:44:07.541Z,15.82
2022-10-13T14:47:13.763Z,16.14
2022-10-13T14:50:20.214Z,16.12
2022-10-13T14:53:26.911Z,16.17
2022-10-13T14:56:34.425Z,16.17
2022-10-13T14:59:40.568Z,15.95
2022-10-13T15:02:46.682Z,15.79
2022-10-13T15:05:53.021Z,15.68
2022-10-13T15:08:59.690Z,15.52
2022-10-13T15:12:07.891Z,15.42
2022-10-13T15:15:14.424Z,15.01
2022-10-13T15:18:20.571Z,15.06
2022-10-13T15:21:27.249Z,14.73
2022-10-13T15:24:33.448Z,14.61
2022-10-13T15:27:42.209Z,14.77
2022-10-13T15:30:49.112Z,14.43
2022-10-13T15:33:55.513Z,14.28
2022-10-13T15:37:02.100Z,14.29
2022-10-13T15:40:09.874Z,14.30
2022-10-13T15:43:18.949Z,14.49
2022-10-13T15:46:26.415Z,14.47
2022-10-13T15:49:37.449Z,14.37
2022-10-13T15:52:43.761Z,14.27
2022-10-13T15:55:50.206Z,14.03
2022-10-13T15:58:57.709Z,14.00
2022-10-13T16:02:03.975Z,14.10
2022-10-13T16:05:13.278Z,14.03
2022-10-13T16:08:19.788Z,13.93
2022-10-13T16:11:26.716Z,13.96
2022-10-13T16:14:34.706Z,13.93
2022-10-13T16:17:41.306Z,13.73
2022-10-13T16:20:47.581Z,13.70
2022-10-13T16:23:54.113Z,13.62
2022-10-13T16:27:00.260Z,13.68
2022-10-13T16:30:09.426Z,13.64
2022-10-13T16:33:15.539Z,13.83
2022-10-13T16:36:22.893Z,13.54
2022-10-13T16:39:29.097Z,13.51
2022-10-13T16:42:35.517Z,13.48
2022-10-13T16:45:59.133Z,13.62
2022-10-13T16:49:06.498Z,13.80
2022-10-13T16:52:12.537Z,13.65
2022-10-13T16:55:18.916Z,13.51
2022-10-13T16:58:24.956Z,13.56
2022-10-13T17:01:34.075Z,13.52
2022-10-13T17:04:40.054Z,13.40
2022-10-13T17:07:46.403Z,13.52
2022-10-13T17:10:57.954Z,13.28
2022-10-13T17:14:05.667Z,13.35
2022-10-13T17:17:12.976Z,13.39
2022-10-13T17:20:19.450Z,13.39
2022-10-13T17:23:26.373Z,13.47
2022-10-13T17:26:32.576Z,13.43
2022-10-13T17:29:38.663Z,13.32
2022-10-13T17:32:46.239Z,13.28
2022-10-13T17:35:52.145Z,13.29
2022-10-13T17:39:03.059Z,13.20
2022-10-13T17:42:09.067Z,13.25
2022-10-13T17:45:15.099Z,13.21
2022-10-13T17:48:23.310Z,13.27
2022-10-13T17:51:29.890Z,13.35
2022-10-13T17:54:36.272Z,13.15
2022-10-13T17:57:42.676Z,13.11
2022-10-13T18:01:11.845Z,13.30
2022-10-13T18:04:20.018Z,13.21
2022-10-13T18:07:25.884Z,13.09
2022-10-13T18:10:50.859Z,12.96
2022-10-13T18:14:00.332Z,13.11
2022-10-13T18:17:06.319Z,13.11
2022-10-13T18:20:14.030Z,13.19
2022-10-13T18:23:19.804Z,12.95
2022-10-13T18:26:27.233Z,12.83
2022-10-13T18:29:33.502Z,12.67
2022-10-13T18:32:39.599Z,12.60
2022-10-13T18:35:46.963Z,12.59
2022-10-13T18:38:53.886Z,12.70
2022-10-13T18:42:00.018Z,12.76
2022-10-13T18:45:06.275Z,12.75
2022-10-13T18:48:12.852Z,12.93
2022-10-13T18:51:21.233Z,13.06
2022-10-13T18:54:29.062Z,13.13
2022-10-13T18:57:38.090Z,13.18
2022-10-13T19:00:44.407Z,13.12
2022-10-13T19:03:52.190Z,13.13
2022-10-13T19:06:59.742Z,13.15
2022-10-13T19:10:06.563Z,12.95
2022-10-13T19:13:12.657Z,12.82
2022-10-13T19:16:20.880Z,12.88
2022-10-13T19:19:27.257Z,12.97
2022-10-13T19:22:35.062Z,12.91
2022-10-13T19:25:43.066Z,12.87
2022-10-13T19:28:49.306Z,12.58
2022-10-13T19:31:55.595Z,12.63
2022-10-13T19:35:01.892Z,12.82
2022-10-13T19:38:10.575Z,12.43
2022-10-13T19:41:16.827Z,12.45
2022-10-13T19:44:24.576Z,12.57
2022-10-13T19:47:30.825Z,12.70
2022-10-13T19:50:37.051Z,12.69
2022-10-13T19:53:45.234Z,12.47
2022-10-13T19:56:52.056Z,12.88
2022-10-13T19:59:58.366Z,12.78
2022-10-13T20:03:05.364Z,12.51
2022-10-13T20:06:11.515Z,12.44
2022-10-13T20:09:19.546Z,12.40
2022-10-13T20:12:26.031Z,12.72
2022-10-13T20:15:32.255Z,12.46
2022-10-13T20:18:38.989Z,12.52
2022-10-13T20:21:45.031Z,12.53
2022-10-13T20:24:52.669Z,12.70
2022-10-13T20:27:58.506Z,12.82
2022-10-13T20:31:06.145Z,12.73
2022-10-13T20:34:12.668Z,12.75
2022-10-13T20:37:18.990Z,12.90
2022-10-13T20:40:26.618Z,12.76
2022-10-13T20:43:32.891Z,12.81
2022-10-13T20:46:39.467Z,12.68
2022-10-13T20:49:45.583Z,12.64
2022-10-13T20:52:51.939Z,12.42
2022-10-13T20:56:00.839Z,12.64
2022-10-13T20:59:08.828Z,12.40
2022-10-13T21:02:16.749Z,12.29
2022-10-13T21:05:22.849Z,12.40
2022-10-13T21:08:29.252Z,12.00
2022-10-13T21:11:38.191Z,12.08
2022-10-13T21:14:44.311Z,12.09
2022-10-13T21:17:52.213Z,12.28
2022-10-13T21:21:03.845Z,12.41
2022-10-13T21:24:11.527Z,12.43
2022-10-13T21:27:19.728Z,12.09
2022-10-13T21:30:26.675Z,11.90
2022-10-13T21:33:35.518Z,12.14
2022-10-13T21:36:44.571Z,12.31
2022-10-13T21:39:50.922Z,11.83
2022-10-13T21:42:58.332Z,11.89
2022-10-13T21:46:16.118Z,12.29
2022-10-13T21:49:22.118Z,12.28
2022-10-13T21:52:28.599Z,12.11
2022-10-13T21:55:34.527Z,12.10
2022-10-13T21:58:42.318Z,12.22
2022-10-13T22:01:48.340Z,12.19
2022-10-13T22:04:54.780Z,12.25
2022-10-13T22:08:01.476Z,12.25
2022-10-13T22:11:09.816Z,11.93
2022-10-13T22:14:17.296Z,12.06
2022-10-13T22:17:24.107Z,12.16
2022-10-13T22:20:30.127Z,12.08
2022-10-13T22:23:36.514Z,11.76
2022-10-13T22:26:44.295Z,12.01
2022-10-13T22:29:52.024Z,12.11
2022-10-13T22:32:58.291Z,12.25
2022-10-13T22:36:08.581Z,12.30
2022-10-13T22:39:15.591Z,12.01
2022-10-13T22:42:22.357Z,12.01
2022-10-13T22:45:29.626Z,12.17
2022-10-13T22:48:40.353Z,12.20
2022-10-13T22:51:46.684Z,12.35
2022-10-13T22:54:52.900Z,12.30
2022-10-13T22:57:59.169Z,12.35
2022-10-13T23:01:11.413Z,12.14
2022-10-13T23:04:17.349Z,11.78
2022-10-13T23:07:23.748Z,11.42
2022-10-13T23:10:30.070Z,11.40
2022-10-13T23:13:36.622Z,11.58
2022-10-13T23:16:44.157Z,11.79
2022-10-13T23:19:50.198Z,11.63
2022-10-13T23:22:56.477Z,11.57
2022-10-13T23:26:04.463Z,11.76
2022-10-13T23:29:11.286Z,12.10
2022-10-13T23:32:18.784Z,12.26
2022-10-13T23:35:25.059Z,12.30
2022-10-13T23:38:33.029Z,11.78
2022-10-13T23:41:39.518Z,11.71
2022-10-13T23:44:45.602Z,11.92
2022-10-13T23:47:53.336Z,12.00
2022-10-13T23:50:59.780Z,11.82
2022-10-13T23:54:06.051Z,11.92
2022-10-13T23:57:12.168Z,11.93
